Terminal Aerodrome Forecast
Issued by NWS Wilmington, OH

Current Version | Previous Version | Graphics & Text | Print | Product List | Glossary On
Versions: 1 2 3 4 5 6 7 8 9 10 11 12 13 14 15 16 17 18 19 20 21 22
000
FTUS41 KILN 250800 AAA
TAFCMH
TAF AMD
KCMH 250858Z 2509/2606 09007KT P6SM OVC070
     FM251200 09010KT P6SM VCSH SCT050 OVC070
     FM251600 08011G21KT P6SM -SHRA SCT025 OVC040
     FM251900 07011G21KT 4SM -SHRA SCT025 OVC040
     FM260000 03010KT P6SM VCSH OVC035=

USA.gov is the U.S. government's official web portal to all federal, state and local government web resources and services.